Time;durP1;ratioP1;P1;durP2;ratioP2;P2;SDS_P1;SDS_P2;PMS_P1;PMS_P2;Temp;Humidity;BMP_temperature;BMP_pressure;BME280_temperature;BME280_humidity;BME280_pressure;Samples;Min_cycle;Max_cycle;Signal;HPM_P1;HPM_P2
2022/02/10 00:20:24;;;;;;;;;;;7.40;1.00;;;;;;5033848;28;19920;-84
2022/02/10 00:23:23;;;;;;;;;;;7.40;1.00;;;;;;5012214;28;19918;-84
2022/02/10 00:34:26;;;;;;;;;;;7.00;99.90;;;;;;5012016;28;19955;-84
2022/02/10 00:42:07;;;;;;;;;;;6.80;99.90;;;;;;5011487;28;20380;-83
2022/02/10 00:44:32;;;;;;;;;;;6.80;99.90;;;;;;5013342;28;19914;-84
2022/02/10 00:46:58;;;;;;;;;;;6.70;99.90;;;;;;5011776;28;20012;-84
2022/02/10 00:49:23;;;;;;;;;;;6.60;99.90;;;;;;5006406;28;19918;-83
2022/02/10 00:51:49;;;;;;;;;;;6.60;99.90;;;;;;5014240;28;20400;-84
2022/02/10 00:54:19;;;;;;;;;;;6.60;99.90;;;;;;5014157;28;19994;-84
2022/02/10 00:56:44;;;;;;;;;;;6.50;99.90;;;;;;5015540;28;19974;-84
2022/02/10 01:12:49;;;;;;;;;;;6.30;99.90;;;;;;5011843;28;19959;-84
2022/02/10 01:31:42;;;;;;;;;;;6.40;99.90;;;;;;5006782;28;20384;-83
2022/02/10 01:34:07;;;;;;;;;;;6.40;99.90;;;;;;5008396;28;19913;-83
2022/02/10 01:36:33;;;;;;;;;;;6.40;99.90;;;;;;5014041;28;20465;-83
2022/02/10 01:38:59;;;;;;;;;;;6.40;99.90;;;;;;5012391;28;19963;-82
2022/02/10 01:58:08;;;;;;;;;;;6.60;99.90;;;;;;5012569;28;20411;-83
2022/02/10 02:05:48;;;;;;;;;;;6.60;99.90;;;;;;5012195;28;19914;-84
2022/02/10 02:08:22;;;;;;;;;;;6.60;99.90;;;;;;5015862;28;19913;-84
2022/02/10 02:10:48;;;;;;;;;;;6.60;99.90;;;;;;5011476;28;19935;-83
2022/02/10 02:13:13;;;;;;;;;;;6.60;99.90;;;;;;5012525;28;20350;-83
2022/02/10 02:15:39;;;;;;;;;;;6.60;93.70;;;;;;5014272;28;20401;-84
2022/02/10 02:18:04;;;;;;;;;;;6.50;69.90;;;;;;5013671;28;19938;-84
2022/02/10 02:20:30;;;;;;;;;;;6.50;43.30;;;;;;5014385;28;19914;-84
2022/02/10 02:22:55;;;;;;;;;;;6.50;15.80;;;;;;5012690;28;19914;-83
2022/02/10 02:25:22;;;;;;;;;;;6.40;1.00;;;;;;5014891;28;20510;-84
2022/02/10 02:27:50;;;;;;;;;;;6.30;9.60;;;;;;5011662;28;20526;-83
2022/02/10 02:30:19;;;;;;;;;;;6.30;74.50;;;;;;5013505;28;19913;-83
2022/02/10 02:33:02;;;;;;;;;;;6.30;99.90;;;;;;5024278;28;19917;-83
2022/02/10 02:35:47;;;;;;;;;;;6.20;99.90;;;;;;5016782;28;19920;-84
2022/02/10 02:38:36;;;;;;;;;;;6.20;99.90;;;;;;5010015;28;19928;-84
2022/02/10 03:05:44;;;;;;;;;;;5.70;99.90;;;;;;5013160;28;20025;-83
2022/02/10 03:08:16;;;;;;;;;;;5.70;99.90;;;;;;5013245;28;20380;-84
2022/02/10 03:13:25;;;;;;;;;;;5.70;99.90;;;;;;5012002;28;19955;-83
2022/02/10 03:18:38;;;;;;;;;;;5.60;99.90;;;;;;5014178;28;19921;-83
2022/02/10 04:10:17;;;;;;;;;;;4.90;99.90;;;;;;5014069;28;20562;-82
2022/02/10 04:55:32;;;;;;;;;;;5.60;99.90;;;;;;5012944;28;19952;-84
2022/02/10 05:17:16;;;;;;;;;;;6.00;99.90;;;;;;5016577;28;19923;-84
2022/02/10 05:35:34;;;;;;;;;;;6.20;86.30;;;;;;5015929;28;19960;-84
2022/02/10 05:38:10;;;;;;;;;;;6.20;81.50;;;;;;5016103;28;19913;-83
2022/02/10 05:49:27;;;;;;;;;;;6.20;85.70;;;;;;5024543;28;19914;-84
2022/02/10 05:57:03;;;;;;;;;;;6.20;99.90;;;;;;5018230;28;19918;-84
2022/02/10 05:59:55;;;;;;;;;;;6.20;99.90;;;;;;5016065;28;20301;-84
2022/02/10 06:51:54;;;;;;;;;;;6.60;60.70;;;;;;5025567;28;19921;-85
2022/02/10 06:54:21;;;;;;;;;;;6.70;57.60;;;;;;5029567;28;19924;-86
2022/02/10 07:56:45;;;;;;;;;;;7.60;1.00;;;;;;5073643;28;19940;-87
2022/02/10 08:51:38;;;;;;;;;;;8.30;1.00;;;;;;4997853;28;19948;-87
2022/02/10 08:54:28;;;;;;;;;;;8.50;99.90;;;;;;5008952;28;19914;-87
2022/02/10 08:59:42;;;;;;;;;;;9.30;1.00;;;;;;5006847;28;19953;-87
2022/02/10 09:02:15;;;;;;;;;;;9.60;1.00;;;;;;5007595;28;19982;-87
2022/02/10 09:20:54;;;;;;;;;;;11.50;99.90;;;;;;5011867;28;19925;-86
2022/02/10 09:49:46;;;;;;;;;;;9.70;99.90;;;;;;5014156;28;19964;-87
2022/02/10 10:01:52;;;;;;;;;;;9.50;99.90;;;;;;5009369;28;19914;-87
2022/02/10 10:04:32;;;;;;;;;;;9.40;99.90;;;;;;4968885;28;19914;-86
2022/02/10 10:07:44;;;;;;;;;;;9.40;99.90;;;;;;4967016;28;19922;-88
2022/02/10 10:21:10;;;;;;;;;;;10.50;99.90;;;;;;5013205;28;19914;-88
2022/02/10 10:26:18;;;;;;;;;;;10.10;99.90;;;;;;5012780;28;19914;-87
2022/02/10 10:59:15;;;;;;;;;;;9.20;1.00;;;;;;5009429;28;19913;-86
2022/02/10 11:39:44;;;;;;;;;;;9.00;99.90;;;;;;5008388;28;20362;-88
2022/02/10 13:25:33;;;;;;;;;;;8.60;1.00;;;;;;5013449;28;19916;-89
2022/02/10 14:12:24;;;;;;;;;;;9.80;99.90;;;;;;5012223;28;19917;-89
2022/02/10 14:14:31;;;;;;;;;;;10.00;1.00;;;;;;5011767;28;19962;-89
2022/02/10 14:17:01;;;;;;;;;;;10.10;99.90;;;;;;5010497;28;19939;-88
2022/02/10 14:22:05;;;;;;;;;;;10.50;1.00;;;;;;5012151;28;19925;-89
2022/02/10 14:27:15;;;;;;;;;;;10.90;86.30;;;;;;5011744;28;19962;-89
2022/02/10 14:29:42;;;;;;;;;;;11.00;1.00;;;;;;5012085;28;19913;-89
2022/02/10 14:32:12;;;;;;;;;;;10.90;1.00;;;;;;5009646;28;20408;-88
2022/02/10 14:34:37;;;;;;;;;;;10.90;1.00;;;;;;5010658;28;20360;-89
2022/02/10 14:37:28;;;;;;;;;;;11.00;1.00;;;;;;5010642;28;19960;-88
2022/02/10 15:14:18;;;;;;;;;;;10.70;99.90;;;;;;5011644;28;19963;-88
2022/02/10 15:56:24;;;;;;;;;;;9.20;99.90;;;;;;5011057;28;19905;-87
2022/02/10 16:16:39;;;;;;;;;;;9.10;1.00;;;;;;5010346;28;20400;-87
2022/02/10 16:18:08;;;;;;;;;;;9.10;1.00;;;;;;5002647;28;19936;-87
2022/02/10 16:20:33;;;;;;;;;;;9.00;99.90;;;;;;5011161;28;19910;-88
2022/02/10 16:23:06;;;;;;;;;;;9.00;1.00;;;;;;5012252;28;19915;-86
2022/02/10 16:25:35;;;;;;;;;;;9.00;99.90;;;;;;5013557;28;19914;-86
2022/02/10 16:28:12;;;;;;;;;;;8.90;99.90;;;;;;5012422;28;19996;-86
2022/02/10 16:30:39;;;;;;;;;;;8.90;1.00;;;;;;5013717;28;20285;-87
2022/02/10 16:33:04;;;;;;;;;;;8.90;99.90;;;;;;5012625;28;20010;-87
2022/02/10 16:35:30;;;;;;;;;;;8.80;99.90;;;;;;5014850;28;19914;-87
2022/02/10 16:37:56;;;;;;;;;;;8.80;99.90;;;;;;5012283;28;20305;-87
2022/02/10 16:40:22;;;;;;;;;;;8.80;99.90;;;;;;5011287;28;19909;-87
2022/02/10 16:42:48;;;;;;;;;;;8.70;99.90;;;;;;5012842;28;19918;-88
2022/02/10 16:45:14;;;;;;;;;;;8.70;99.90;;;;;;5011091;28;19957;-88
2022/02/10 16:47:40;;;;;;;;;;;8.60;99.90;;;;;;5011921;28;19928;-87
2022/02/10 16:50:05;;;;;;;;;;;8.60;99.90;;;;;;5011998;28;20373;-88
2022/02/10 16:52:37;;;;;;;;;;;8.60;99.90;;;;;;5012991;28;19916;-87
2022/02/10 16:55:17;;;;;;;;;;;8.50;99.90;;;;;;5009795;28;19913;-88
2022/02/10 16:57:57;;;;;;;;;;;8.50;99.90;;;;;;5011563;28;19963;-88
2022/02/10 17:05:46;;;;;;;;;;;8.40;1.00;;;;;;4993876;28;20039;-86
2022/02/10 17:19:16;;;;;;;;;;;8.20;1.00;;;;;;5007019;28;19917;-85
2022/02/10 17:27:23;;;;;;;;;;;8.20;99.90;;;;;;5014060;28;19971;-85
2022/02/10 17:41:21;;;;;;;;;;;8.10;99.90;;;;;;5013783;28;19913;-86
2022/02/10 17:53:37;;;;;;;;;;;8.00;99.90;;;;;;5012513;28;19955;-87
2022/02/10 17:56:03;;;;;;;;;;;7.90;1.00;;;;;;5011262;28;19996;-86
2022/02/10 17:58:29;;;;;;;;;;;7.90;1.00;;;;;;5027677;28;19968;-86
2022/02/10 18:00:56;;;;;;;;;;;7.90;1.00;;;;;;5011359;28;19952;-87
2022/02/10 18:03:22;;;;;;;;;;;7.80;99.90;;;;;;5012245;28;20319;-87
2022/02/10 18:08:29;;;;;;;;;;;7.80;99.90;;;;;;5012182;28;20008;-86
2022/02/10 18:11:28;;;;;;;;;;;7.80;1.00;;;;;;5012274;28;19910;-86
2022/02/10 18:16:15;;;;;;;;;;;7.70;1.00;;;;;;5012490;28;19917;-86
2022/02/10 18:18:49;;;;;;;;;;;7.70;1.00;;;;;;5011141;28;19917;-87
2022/02/10 18:24:05;;;;;;;;;;;7.70;1.00;;;;;;5012156;28;19932;-87
2022/02/10 18:29:17;;;;;;;;;;;7.70;1.00;;;;;;5010374;28;19921;-87
2022/02/10 19:09:39;;;;;;;;;;;6.70;99.90;;;;;;5011871;28;20008;-87
2022/02/10 19:12:14;;;;;;;;;;;6.60;99.90;;;;;;5010104;28;20710;-86
2022/02/10 19:14:40;;;;;;;;;;;6.50;1.00;;;;;;5010357;28;20362;-86
2022/02/10 19:17:05;;;;;;;;;;;6.40;1.00;;;;;;5009808;28;19945;-86
2022/02/10 19:19:32;;;;;;;;;;;6.40;1.00;;;;;;5009842;28;20266;-86
2022/02/10 19:21:57;;;;;;;;;;;6.40;1.00;;;;;;5011286;28;19910;-86
2022/02/10 19:24:23;;;;;;;;;;;6.40;27.80;;;;;;5009701;28;19917;-86
2022/02/10 19:26:51;;;;;;;;;;;6.40;99.90;;;;;;5009971;28;19957;-86
2022/02/10 19:29:18;;;;;;;;;;;6.30;1.00;;;;;;5009817;28;20411;-86
2022/02/10 19:31:45;;;;;;;;;;;6.30;1.00;;;;;;5011201;28;19913;-87
2022/02/10 19:34:10;;;;;;;;;;;6.30;1.00;;;;;;5009341;28;19910;-86
2022/02/10 19:36:38;;;;;;;;;;;6.20;99.90;;;;;;5009587;28;19974;-87
2022/02/10 19:39:03;;;;;;;;;;;6.20;1.00;;;;;;5009640;28;19916;-87
2022/02/10 19:41:36;;;;;;;;;;;6.10;99.90;;;;;;5010069;28;19909;-87
2022/02/10 19:44:02;;;;;;;;;;;6.10;1.00;;;;;;5010866;28;19958;-87
2022/02/10 19:46:28;;;;;;;;;;;6.00;1.00;;;;;;5010765;28;19921;-87
2022/02/10 19:48:54;;;;;;;;;;;6.00;14.20;;;;;;5011860;28;19909;-87
2022/02/10 19:51:20;;;;;;;;;;;5.90;99.90;;;;;;5010042;28;20377;-87
2022/02/10 19:53:47;;;;;;;;;;;5.80;49.30;;;;;;5010018;28;19935;-87
2022/02/10 19:56:14;;;;;;;;;;;5.80;1.00;;;;;;5010920;28;19917;-87
2022/02/10 19:58:39;;;;;;;;;;;5.70;9.60;;;;;;5010011;28;20039;-87
2022/02/10 20:01:05;;;;;;;;;;;5.60;1.00;;;;;;5010446;28;19951;-87
2022/02/10 20:03:33;;;;;;;;;;;5.60;1.00;;;;;;5008948;28;19962;-87
2022/02/10 20:06:00;;;;;;;;;;;5.50;1.00;;;;;;5008593;28;19909;-87
2022/02/10 20:08:26;;;;;;;;;;;5.50;1.00;;;;;;5009049;28;20297;-87
2022/02/10 20:10:55;;;;;;;;;;;5.50;27.30;;;;;;5009546;28;19914;-87
2022/02/10 20:13:22;;;;;;;;;;;5.40;99.90;;;;;;5010142;28;19913;-87
2022/02/10 20:15:50;;;;;;;;;;;5.40;99.90;;;;;;5010243;28;19910;-87
2022/02/10 20:18:15;;;;;;;;;;;5.40;99.90;;;;;;5008015;28;19997;-87
2022/02/10 20:20:45;;;;;;;;;;;5.40;99.90;;;;;;5009116;28;19941;-87
2022/02/10 20:23:11;;;;;;;;;;;5.40;99.90;;;;;;5008764;28;20331;-88
2022/02/10 20:25:37;;;;;;;;;;;5.40;99.90;;;;;;5010342;28;19914;-87
2022/02/10 20:28:03;;;;;;;;;;;5.40;99.90;;;;;;5010543;28;19913;-87
2022/02/10 20:30:31;;;;;;;;;;;5.30;99.90;;;;;;5008834;28;19938;-87
2022/02/10 20:32:56;;;;;;;;;;;5.30;99.90;;;;;;5011189;28;19909;-86
2022/02/10 20:35:21;;;;;;;;;;;5.40;99.90;;;;;;5009634;28;19914;-87
2022/02/10 20:37:47;;;;;;;;;;;5.40;99.90;;;;;;5007756;28;20010;-86
2022/02/10 20:40:13;;;;;;;;;;;5.40;99.90;;;;;;5005467;28;19926;-86
2022/02/10 20:42:39;;;;;;;;;;;5.40;99.90;;;;;;5009713;28;19906;-85
2022/02/10 20:45:06;;;;;;;;;;;5.40;99.90;;;;;;5006357;28;20373;-85
2022/02/10 20:47:32;;;;;;;;;;;5.40;99.90;;;;;;5010294;28;20274;-85
2022/02/10 20:49:57;;;;;;;;;;;5.30;99.90;;;;;;5008706;28;19916;-86
2022/02/10 20:52:23;;;;;;;;;;;5.40;99.90;;;;;;5011375;28;19910;-84
2022/02/10 20:54:48;;;;;;;;;;;5.30;99.90;;;;;;5008162;28;19949;-86
2022/02/10 20:57:14;;;;;;;;;;;5.30;99.90;;;;;;5002220;28;20391;-86
2022/02/10 20:59:43;;;;;;;;;;;5.20;49.80;;;;;;5007279;28;20277;-85
2022/02/10 21:02:15;;;;;;;;;;;5.30;38.50;;;;;;5008617;28;19988;-85
2022/02/10 21:05:08;;;;;;;;;;;5.30;99.90;;;;;;5010439;28;19910;-86
2022/02/10 21:10:01;;;;;;;;;;;5.30;1.00;;;;;;5009298;28;19917;-86
2022/02/10 21:12:30;;;;;;;;;;;5.30;1.00;;;;;;5031240;28;19910;-85
2022/02/10 21:14:55;;;;;;;;;;;5.20;1.00;;;;;;5005050;28;19918;-85
2022/02/10 21:17:25;;;;;;;;;;;5.30;1.00;;;;;;5012879;28;20408;-85
2022/02/10 21:19:51;;;;;;;;;;;5.20;99.90;;;;;;5011147;28;19929;-86
2022/02/10 21:22:20;;;;;;;;;;;5.20;99.90;;;;;;5030689;28;20315;-85
2022/02/10 21:24:53;;;;;;;;;;;5.20;99.90;;;;;;5016329;28;19961;-85
2022/02/10 21:29:54;;;;;;;;;;;5.20;99.90;;;;;;5012418;28;19964;-84
2022/02/10 21:32:20;;;;;;;;;;;5.20;99.90;;;;;;5031954;28;20041;-84
2022/02/10 21:35:00;;;;;;;;;;;5.20;99.90;;;;;;5014085;28;19910;-83
2022/02/10 21:37:26;;;;;;;;;;;5.10;99.90;;;;;;5014588;28;19913;-84
2022/02/10 21:40:25;;;;;;;;;;;5.10;1.00;;;;;;5013866;28;19924;-84
2022/02/10 21:46:49;;;;;;;;;;;5.00;1.00;;;;;;5009249;28;20416;-83
2022/02/10 21:59:11;;;;;;;;;;;4.90;99.90;;;;;;5013400;28;20423;-83
2022/02/10 22:09:40;;;;;;;;;;;4.80;99.90;;;;;;5007702;28;19933;-83
2022/02/10 22:20:16;;;;;;;;;;;4.70;99.90;;;;;;5010999;28;19918;-83
2022/02/10 22:25:26;;;;;;;;;;;4.70;99.90;;;;;;5009540;28;19969;-83
2022/02/10 22:27:53;;;;;;;;;;;4.70;99.90;;;;;;5011539;28;20016;-82
2022/02/10 22:30:29;;;;;;;;;;;4.70;99.90;;;;;;5007613;28;20400;-83
2022/02/10 22:35:39;;;;;;;;;;;4.70;99.90;;;;;;5011765;28;19920;-83
2022/02/10 22:38:04;;;;;;;;;;;4.70;99.90;;;;;;5010880;28;19917;-83
2022/02/10 22:41:00;;;;;;;;;;;4.60;99.90;;;;;;5006097;28;20000;-83
2022/02/10 22:43:25;;;;;;;;;;;4.60;99.90;;;;;;5006918;28;19945;-83
2022/02/10 22:45:51;;;;;;;;;;;4.60;99.90;;;;;;5011964;28;19917;-83
2022/02/10 22:48:16;;;;;;;;;;;4.60;99.90;;;;;;5011130;28;19914;-83
2022/02/10 22:50:42;;;;;;;;;;;4.60;99.90;;;;;;5010479;28;19929;-83
2022/02/10 22:53:07;;;;;;;;;;;4.60;99.90;;;;;;5004527;28;19914;-82
2022/02/10 22:55:33;;;;;;;;;;;4.50;99.90;;;;;;5008795;28;19937;-84
2022/02/10 22:57:58;;;;;;;;;;;4.50;99.90;;;;;;5012781;28;19980;-85
2022/02/10 23:00:31;;;;;;;;;;;4.40;99.90;;;;;;5013673;28;20004;-83
2022/02/10 23:02:57;;;;;;;;;;;4.40;99.90;;;;;;5020887;28;19976;-85
2022/02/10 23:05:23;;;;;;;;;;;4.40;99.90;;;;;;5030262;28;19913;-84
2022/02/10 23:07:54;;;;;;;;;;;4.40;99.90;;;;;;5011788;28;19914;-84
2022/02/10 23:10:44;;;;;;;;;;;4.40;99.90;;;;;;5032103;28;20392;-85
2022/02/10 23:13:06;;;;;;;;;;;4.40;99.90;;;;;;5011434;28;19984;-84
2022/02/10 23:15:37;;;;;;;;;;;4.40;99.90;;;;;;5015510;28;19918;-84
2022/02/10 23:18:09;;;;;;;;;;;4.40;99.90;;;;;;5012396;28;19921;-84
2022/02/10 23:20:36;;;;;;;;;;;4.40;99.90;;;;;;5008962;28;20335;-86
2022/02/10 23:23:03;;;;;;;;;;;4.40;99.90;;;;;;5013198;28;19914;-85
2022/02/10 23:25:29;;;;;;;;;;;4.50;99.90;;;;;;5010420;28;19978;-84
2022/02/10 23:27:54;;;;;;;;;;;4.50;99.90;;;;;;5012315;28;19948;-84
2022/02/10 23:30:23;;;;;;;;;;;4.50;99.90;;;;;;5033221;28;19914;-84
2022/02/10 23:32:50;;;;;;;;;;;4.50;99.90;;;;;;5007279;28;19914;-84
2022/02/10 23:37:59;;;;;;;;;;;4.50;99.90;;;;;;5012313;28;19929;-84
2022/02/10 23:40:35;;;;;;;;;;;4.50;99.90;;;;;;5033175;22;20015;-82
2022/02/10 23:43:00;;;;;;;;;;;4.50;99.90;;;;;;5048019;28;19931;-82
2022/02/10 23:45:28;;;;;;;;;;;4.50;99.90;;;;;;5048373;28;19913;-82
2022/02/10 23:47:55;;;;;;;;;;;4.50;99.90;;;;;;5049609;28;21539;-82
2022/02/10 23:50:26;;;;;;;;;;;4.40;99.90;;;;;;5046755;28;19963;-82
2022/02/10 23:52:54;;;;;;;;;;;4.40;99.90;;;;;;5045511;28;19913;-82
2022/02/10 23:55:27;;;;;;;;;;;4.40;99.90;;;;;;5044993;28;19921;-82
2022/02/10 23:58:03;;;;;;;;;;;4.40;99.90;;;;;;5044833;28;19920;-82
